Time;durP1;ratioP1;P1;durP2;ratioP2;P2;SDS_P1;SDS_P2;PMS_P1;PMS_P2;Temp;Humidity;BMP_temperature;BMP_pressure;BME280_temperature;BME280_humidity;BME280_pressure;Samples;Min_cycle;Max_cycle;Signal;HPM_P1;HPM_P2
2021/05/16 00:02:09;;;;;;;1.67;1.57;;;10.70;99.90;;;;;;5115688;28;20299;-69
2021/05/16 00:04:37;;;;;;;1.73;1.57;;;10.70;99.90;;;;;;5115682;28;20211;-69
2021/05/16 00:07:04;;;;;;;3.33;1.67;;;10.80;99.90;;;;;;5115545;28;20204;-68
2021/05/16 00:09:32;;;;;;;2.87;1.60;;;10.90;99.90;;;;;;5115578;28;20777;-68
2021/05/16 00:12:00;;;;;;;1.80;1.70;;;10.90;99.90;;;;;;5115424;28;20770;-69
2021/05/16 00:14:29;;;;;;;2.43;1.67;;;10.80;99.90;;;;;;5114962;28;20730;-68
2021/05/16 00:16:56;;;;;;;1.83;1.63;;;10.80;99.90;;;;;;5115614;28;20199;-69
2021/05/16 00:19:25;;;;;;;1.87;1.70;;;10.80;99.90;;;;;;5115599;28;20199;-68
2021/05/16 00:21:52;;;;;;;3.40;1.53;;;10.80;99.90;;;;;;5115286;28;20738;-68
2021/05/16 00:24:20;;;;;;;1.90;1.67;;;10.70;99.90;;;;;;5115390;28;20199;-69
2021/05/16 00:26:47;;;;;;;2.23;1.90;;;10.80;99.90;;;;;;5115174;28;20314;-69
2021/05/16 00:29:15;;;;;;;1.77;1.67;;;10.80;99.90;;;;;;5114974;28;20285;-69
2021/05/16 00:31:43;;;;;;;1.57;1.47;;;10.80;99.90;;;;;;5114894;28;20210;-69
2021/05/16 00:34:10;;;;;;;2.07;1.87;;;10.80;99.90;;;;;;5115133;28;20263;-69
2021/05/16 00:36:39;;;;;;;2.07;1.87;;;10.80;99.90;;;;;;5115148;28;20590;-69
2021/05/16 00:39:07;;;;;;;1.80;1.60;;;10.90;99.90;;;;;;5114741;28;20628;-68
2021/05/16 00:41:34;;;;;;;1.70;1.60;;;10.90;99.90;;;;;;5115048;28;20248;-68
2021/05/16 00:44:02;;;;;;;3.10;1.73;;;10.90;99.90;;;;;;5114551;28;20243;-68
2021/05/16 00:46:30;;;;;;;2.23;1.60;;;10.90;99.90;;;;;;5114968;28;20547;-68
2021/05/16 00:48:57;;;;;;;2.20;1.77;;;10.80;99.90;;;;;;5114912;28;20202;-67
2021/05/16 00:51:24;;;;;;;4.43;1.80;;;10.80;99.90;;;;;;5113841;28;20665;-68
2021/05/16 00:53:53;;;;;;;1.50;1.40;;;10.80;99.90;;;;;;5114801;28;20610;-67
2021/05/16 00:56:21;;;;;;;2.13;1.60;;;10.90;99.90;;;;;;5114868;28;20286;-68
2021/05/16 00:58:48;;;;;;;2.30;1.60;;;10.90;99.90;;;;;;5114083;28;20662;-68
2021/05/16 01:01:18;;;;;;;1.50;1.40;;;10.80;99.90;;;;;;5114421;28;20282;-69
2021/05/16 01:03:45;;;;;;;2.10;1.43;;;10.80;99.90;;;;;;5114047;28;20550;-69
2021/05/16 01:06:13;;;;;;;2.30;1.70;;;10.80;99.90;;;;;;5114325;28;20326;-69
2021/05/16 01:08:40;;;;;;;3.30;1.73;;;10.80;99.90;;;;;;5114589;28;20287;-68
2021/05/16 01:11:09;;;;;;;3.43;1.80;;;10.60;99.90;;;;;;5114336;28;20203;-69
2021/05/16 01:13:36;;;;;;;1.93;1.67;;;10.60;99.90;;;;;;5114266;28;20205;-69
2021/05/16 01:16:04;;;;;;;2.57;1.70;;;10.70;99.90;;;;;;5114296;28;20671;-69
2021/05/16 01:18:32;;;;;;;2.40;1.50;;;10.60;99.90;;;;;;5114555;28;20199;-69
2021/05/16 01:20:59;;;;;;;1.60;1.50;;;10.60;99.90;;;;;;5114503;28;20616;-68
2021/05/16 01:23:31;;;;;;;1.80;1.70;;;10.50;99.90;;;;;;5114354;28;20199;-68
2021/05/16 01:26:00;;;;;;;2.00;1.80;;;10.40;99.90;;;;;;5114042;28;20298;-68
2021/05/16 01:28:28;;;;;;;1.70;1.60;;;10.40;99.90;;;;;;5113738;28;20651;-69
2021/05/16 01:30:55;;;;;;;1.60;1.50;;;10.40;99.90;;;;;;5113819;28;20221;-69
2021/05/16 01:33:23;;;;;;;2.23;1.67;;;10.50;99.90;;;;;;5113780;28;20413;-68
2021/05/16 01:35:50;;;;;;;1.67;1.50;;;10.60;99.90;;;;;;5114022;28;20229;-67
2021/05/16 01:38:17;;;;;;;2.53;1.70;;;10.70;99.90;;;;;;5113642;28;20317;-69
2021/05/16 01:40:46;;;;;;;2.73;1.60;;;10.70;99.90;;;;;;5113640;28;20234;-68
2021/05/16 01:43:14;;;;;;;2.07;1.80;;;10.80;99.90;;;;;;5113788;28;20207;-68
2021/05/16 01:45:43;;;;;;;1.73;1.63;;;10.80;99.90;;;;;;5113503;28;20319;-68
2021/05/16 01:48:11;;;;;;;2.10;1.50;;;10.80;99.90;;;;;;5113564;28;20655;-68
2021/05/16 01:50:39;;;;;;;2.30;1.40;;;10.90;99.90;;;;;;5113507;28;20648;-69
2021/05/16 01:53:09;;;;;;;1.70;1.60;;;10.80;99.90;;;;;;5113772;28;20199;-69
2021/05/16 01:55:37;;;;;;;2.30;1.30;;;10.90;99.90;;;;;;5113439;28;20227;-68
2021/05/16 01:58:06;;;;;;;3.00;1.70;;;10.90;99.90;;;;;;5113678;28;20210;-68
2021/05/16 02:00:35;;;;;;;2.53;1.53;;;10.80;99.90;;;;;;5113373;28;20243;-68
2021/05/16 02:03:02;;;;;;;1.87;1.70;;;10.80;99.90;;;;;;5113141;28;20201;-69
2021/05/16 02:05:30;;;;;;;1.70;1.60;;;10.90;99.90;;;;;;5113268;28;20687;-67
2021/05/16 02:07:59;;;;;;;1.90;1.70;;;10.80;99.90;;;;;;5113244;28;20237;-69
2021/05/16 02:10:26;;;;;;;2.83;1.43;;;10.80;99.90;;;;;;5113488;28;20202;-69
2021/05/16 02:12:54;;;;;;;2.57;1.60;;;10.60;99.90;;;;;;5113548;28;20295;-69
2021/05/16 02:15:22;;;;;;;2.40;1.67;;;10.50;99.90;;;;;;5112831;28;20623;-59
2021/05/16 02:17:54;;;;;;;2.27;1.80;;;10.50;99.90;;;;;;5113396;28;20231;-61
2021/05/16 02:20:22;;;;;;;1.90;1.50;;;10.60;99.90;;;;;;5113472;28;20184;-60
2021/05/16 02:22:49;;;;;;;1.90;1.67;;;10.60;99.90;;;;;;5113275;28;20286;-61
2021/05/16 02:25:17;;;;;;;2.50;1.70;;;10.70;99.90;;;;;;5113285;28;20205;-60
2021/05/16 02:27:47;;;;;;;2.40;1.60;;;10.70;99.90;;;;;;5112822;28;20684;-60
2021/05/16 02:30:16;;;;;;;2.70;1.80;;;10.80;99.90;;;;;;5112647;28;20248;-60
2021/05/16 02:32:44;;;;;;;1.97;1.83;;;10.90;99.90;;;;;;5113180;28;20203;-60
2021/05/16 02:35:13;;;;;;;1.70;1.60;;;11.00;99.90;;;;;;5112904;28;20231;-61
2021/05/16 02:37:41;;;;;;;1.70;1.50;;;11.00;99.90;;;;;;5112994;28;20227;-61
2021/05/16 02:40:09;;;;;;;1.60;1.50;;;10.90;99.90;;;;;;5113141;28;20232;-60
2021/05/16 02:42:37;;;;;;;1.70;1.60;;;10.80;99.90;;;;;;5112406;28;20632;-62
2021/05/16 02:45:06;;;;;;;2.77;1.80;;;10.80;99.90;;;;;;5112128;28;20553;-61
2021/05/16 02:47:33;;;;;;;2.27;1.80;;;10.80;99.90;;;;;;5112323;28;20310;-61
2021/05/16 02:50:03;;;;;;;1.97;1.57;;;10.80;99.90;;;;;;5112983;28;20276;-61
2021/05/16 02:52:30;;;;;;;2.20;1.77;;;10.80;99.90;;;;;;5113040;28;20249;-60
2021/05/16 02:54:58;;;;;;;2.43;2.00;;;10.90;99.90;;;;;;5113013;28;20287;-60
2021/05/16 02:57:25;;;;;;;2.73;1.90;;;11.10;99.90;;;;;;5112995;28;20226;-60
2021/05/16 02:59:52;;;;;;;2.40;2.20;;;11.00;99.90;;;;;;5112743;28;20231;-61
2021/05/16 03:02:20;;;;;;;1.77;1.67;;;10.90;99.90;;;;;;5112937;28;20235;-60
2021/05/16 03:04:47;;;;;;;1.90;1.80;;;10.80;99.90;;;;;;5112985;28;20226;-60
2021/05/16 03:07:15;;;;;;;3.90;2.10;;;10.80;99.90;;;;;;5112835;28;20221;-61
2021/05/16 03:09:43;;;;;;;2.53;2.10;;;10.70;99.90;;;;;;5112934;28;20287;-60
2021/05/16 03:12:10;;;;;;;2.37;2.10;;;10.60;99.90;;;;;;5112861;28;20196;-60
2021/05/16 03:14:38;;;;;;;2.80;2.00;;;10.70;99.90;;;;;;5112742;28;20231;-60
2021/05/16 03:17:05;;;;;;;2.10;1.90;;;10.70;99.90;;;;;;5116829;28;20191;-59
2021/05/16 03:19:33;;;;;;;2.67;2.00;;;10.70;99.90;;;;;;5116885;28;20295;-60
2021/05/16 03:22:01;;;;;;;2.13;1.93;;;10.70;99.90;;;;;;5116560;28;20196;-60
2021/05/16 03:24:30;;;;;;;3.53;2.20;;;10.60;99.90;;;;;;5116485;28;20207;-61
2021/05/16 03:26:58;;;;;;;2.33;1.90;;;10.60;99.90;;;;;;5116380;28;20697;-60
2021/05/16 03:29:25;;;;;;;1.83;1.70;;;10.50;99.90;;;;;;5116390;28;20195;-60
2021/05/16 03:31:52;;;;;;;2.30;1.70;;;10.60;99.90;;;;;;5116283;28;20234;-61
2021/05/16 03:34:20;;;;;;;1.60;1.50;;;10.60;99.90;;;;;;5116609;28;20202;-61
2021/05/16 03:36:47;;;;;;;1.27;1.20;;;10.60;99.90;;;;;;5116458;28;20207;-60
2021/05/16 03:39:15;;;;;;;1.50;1.40;;;10.70;99.90;;;;;;5116125;28;20710;-61
2021/05/16 03:41:43;;;;;;;2.10;1.50;;;10.60;99.90;;;;;;5116173;28;20234;-61
2021/05/16 03:44:11;;;;;;;1.60;1.50;;;10.50;99.90;;;;;;5116085;28;20286;-60
2021/05/16 03:46:38;;;;;;;2.20;1.57;;;10.40;99.90;;;;;;5116013;28;20310;-60
2021/05/16 03:49:05;;;;;;;2.00;1.70;;;10.40;99.90;;;;;;5116247;28;20230;-61
2021/05/16 03:51:33;;;;;;;1.90;1.80;;;10.50;99.90;;;;;;5115994;28;20290;-60
2021/05/16 03:54:00;;;;;;;1.80;1.60;;;10.40;99.90;;;;;;5116184;28;20199;-60
2021/05/16 03:56:27;;;;;;;3.37;2.10;;;10.50;99.90;;;;;;5116184;28;20299;-60
2021/05/16 03:58:56;;;;;;;1.70;1.60;;;10.50;99.90;;;;;;5115484;28;20619;-60
2021/05/16 04:01:23;;;;;;;1.77;1.67;;;10.50;99.90;;;;;;5115638;28;20210;-60
2021/05/16 04:03:50;;;;;;;1.77;1.67;;;10.60;99.90;;;;;;5115581;28;20557;-60
2021/05/16 04:06:18;;;;;;;1.70;1.60;;;10.60;99.90;;;;;;5115477;28;20219;-60
2021/05/16 04:08:45;;;;;;;1.40;1.30;;;10.70;99.90;;;;;;5115783;28;20227;-61
2021/05/16 04:11:12;;;;;;;2.40;1.40;;;10.70;99.90;;;;;;5115821;28;20295;-61
2021/05/16 04:13:40;;;;;;;1.83;1.57;;;10.80;99.90;;;;;;5115647;28;20223;-60
2021/05/16 04:16:08;;;;;;;1.30;1.20;;;11.00;99.90;;;;;;5115654;28;20243;-60
2021/05/16 04:18:35;;;;;;;1.43;1.33;;;11.00;99.90;;;;;;5115312;28;20719;-60
2021/05/16 04:21:03;;;;;;;1.67;1.00;;;11.00;99.90;;;;;;5115666;28;20199;-61
2021/05/16 04:23:31;;;;;;;1.10;1.00;;;11.10;99.90;;;;;;5115170;28;20199;-60
2021/05/16 04:25:58;;;;;;;1.87;0.97;;;11.10;99.90;;;;;;5115210;28;20246;-60
2021/05/16 04:28:26;;;;;;;1.00;0.90;;;11.00;99.90;;;;;;5115478;28;20330;-60
2021/05/16 04:30:53;;;;;;;0.80;0.80;;;11.20;99.90;;;;;;5115196;28;20223;-60
2021/05/16 04:33:22;;;;;;;1.47;1.07;;;11.20;99.90;;;;;;5115317;28;20256;-61
2021/05/16 04:35:49;;;;;;;1.10;0.70;;;11.20;99.90;;;;;;5115479;28;20294;-61
2021/05/16 04:38:16;;;;;;;0.70;0.70;;;11.30;99.90;;;;;;5114911;28;20321;-60
2021/05/16 04:40:45;;;;;;;1.00;0.90;;;11.30;99.90;;;;;;5115184;28;20234;-61
2021/05/16 04:43:13;;;;;;;1.20;1.10;;;11.30;99.90;;;;;;5114896;28;20230;-61
2021/05/16 04:45:40;;;;;;;0.80;0.80;;;11.30;99.90;;;;;;5114884;28;20278;-61
2021/05/16 04:48:08;;;;;;;1.13;0.87;;;11.30;99.90;;;;;;5114954;28;20215;-60
2021/05/16 04:50:36;;;;;;;0.97;0.80;;;11.30;99.90;;;;;;5114811;28;20287;-60
2021/05/16 04:53:04;;;;;;;0.70;0.70;;;11.30;99.90;;;;;;5114879;28;20205;-60
2021/05/16 04:55:31;;;;;;;0.70;0.70;;;11.30;99.90;;;;;;5114880;28;20207;-60
2021/05/16 04:57:58;;;;;;;1.00;0.80;;;11.30;99.90;;;;;;5114516;28;20613;-61
2021/05/16 05:00:26;;;;;;;1.00;0.90;;;11.30;99.90;;;;;;5114530;28;20230;-60
2021/05/16 05:02:54;;;;;;;1.00;0.90;;;11.30;99.90;;;;;;5114462;28;20231;-61
2021/05/16 05:05:21;;;;;;;0.83;0.83;;;11.30;99.90;;;;;;5114825;28;20205;-61
2021/05/16 05:07:49;;;;;;;1.10;1.00;;;11.40;99.90;;;;;;5114275;28;20310;-60
2021/05/16 05:10:16;;;;;;;1.20;1.10;;;11.40;99.90;;;;;;5114662;28;20290;-61
2021/05/16 05:12:44;;;;;;;1.40;1.30;;;11.50;99.90;;;;;;5114304;28;20832;-61
2021/05/16 05:15:11;;;;;;;1.20;1.10;;;11.60;99.90;;;;;;5114007;28;20670;-61
2021/05/16 05:17:42;;;;;;;1.23;0.87;;;11.70;99.90;;;;;;5114073;28;20286;-60
2021/05/16 05:20:11;;;;;;;1.70;1.13;;;11.60;99.90;;;;;;5114431;28;20199;-60
2021/05/16 05:22:39;;;;;;;1.17;1.07;;;11.80;99.90;;;;;;5113949;28;20659;-60
2021/05/16 05:25:08;;;;;;;1.00;0.90;;;11.90;99.90;;;;;;5113918;28;20203;-60
2021/05/16 05:27:36;;;;;;;0.93;0.90;;;12.10;99.90;;;;;;5114150;28;20217;-61
2021/05/16 05:30:04;;;;;;;1.20;1.10;;;12.10;99.90;;;;;;5113720;28;20663;-61
2021/05/16 05:32:32;;;;;;;1.30;1.00;;;12.40;99.90;;;;;;5114039;28;20203;-61
2021/05/16 05:34:59;;;;;;;1.00;0.80;;;12.60;99.90;;;;;;5114167;28;20242;-61
2021/05/16 05:37:27;;;;;;;1.00;0.90;;;12.70;99.90;;;;;;5113092;28;20639;-60
2021/05/16 05:39:54;;;;;;;1.10;1.00;;;12.90;99.90;;;;;;5114015;28;20238;-59
2021/05/16 05:42:23;;;;;;;1.27;0.90;;;13.10;99.90;;;;;;5113959;28;20286;-61
2021/05/16 05:44:52;;;;;;;2.27;0.93;;;13.30;99.90;;;;;;5113592;28;20203;-61
2021/05/16 05:47:19;;;;;;;1.55;0.90;;;13.50;99.90;;;;;;5113424;28;20256;-61
2021/05/16 05:49:46;;;;;;;1.38;1.15;;;13.80;99.90;;;;;;5113364;28;20283;-61
2021/05/16 05:52:14;;;;;;;2.00;0.80;;;14.00;99.90;;;;;;5113215;28;20282;-61
2021/05/16 05:54:41;;;;;;;0.90;0.80;;;14.10;99.90;;;;;;5113504;28;20294;-61
2021/05/16 05:57:08;;;;;;;1.60;0.90;;;14.30;99.90;;;;;;5113699;28;20574;-61
2021/05/16 05:59:37;;;;;;;1.75;1.00;;;14.40;99.90;;;;;;5113154;28;20693;-60
2021/05/16 06:02:04;;;;;;;1.83;0.90;;;14.60;99.90;;;;;;5113179;28;20765;-61
2021/05/16 06:04:31;;;;;;;1.00;0.80;;;14.80;99.90;;;;;;5113456;28;20632;-60
2021/05/16 06:06:59;;;;;;;1.48;1.25;;;14.90;99.90;;;;;;5113287;28;20266;-60
2021/05/16 06:09:27;;;;;;;1.95;1.00;;;15.00;99.90;;;;;;5113291;28;20224;-60
2021/05/16 06:11:55;;;;;;;1.48;1.10;;;14.90;99.90;;;;;;5113227;28;20235;-60
2021/05/16 06:14:23;;;;;;;1.33;0.88;;;14.70;99.90;;;;;;5113172;28;20199;-62
2021/05/16 06:16:51;;;;;;;1.83;1.02;;;14.40;99.90;;;;;;5113138;28;20674;-61
2021/05/16 06:19:19;;;;;;;3.40;1.03;;;14.10;99.90;;;;;;5113398;28;20291;-62
2021/05/16 06:21:46;;;;;;;3.28;1.17;;;13.80;99.90;;;;;;5113366;28;20195;-62
2021/05/16 06:24:13;;;;;;;1.00;0.90;;;13.70;99.90;;;;;;5113054;28;20206;-61
2021/05/16 06:26:42;;;;;;;2.55;0.95;;;13.60;99.90;;;;;;5113233;28;20224;-61
2021/05/16 06:29:11;;;;;;;3.17;1.23;;;13.50;99.90;;;;;;5112576;28;20290;-60
2021/05/16 06:31:38;;;;;;;3.55;1.77;;;13.50;99.90;;;;;;5113138;28;20223;-60
2021/05/16 06:34:07;;;;;;;1.98;1.00;;;13.70;99.90;;;;;;5113089;28;20589;-61
2021/05/16 06:36:34;;;;;;;1.25;0.90;;;13.70;99.90;;;;;;5113060;28;20286;-60
2021/05/16 06:39:03;;;;;;;2.72;1.05;;;13.70;99.90;;;;;;5112692;28;20227;-60
2021/05/16 06:41:30;;;;;;;2.17;1.10;;;13.80;99.90;;;;;;5113128;28;20298;-60
2021/05/16 06:43:59;;;;;;;2.25;1.00;;;13.90;99.90;;;;;;5112820;28;20294;-60
2021/05/16 06:46:27;;;;;;;3.08;1.73;;;14.00;99.90;;;;;;5113043;28;20199;-61
2021/05/16 06:48:55;;;;;;;1.93;0.90;;;14.30;99.90;;;;;;5113013;28;20351;-61
2021/05/16 06:51:23;;;;;;;1.70;1.00;;;14.50;99.90;;;;;;5116156;28;20231;-61
2021/05/16 06:53:57;;;;;;;2.20;1.05;;;14.70;99.90;;;;;;5117001;28;20207;-62
2021/05/16 06:56:25;;;;;;;1.30;1.00;;;14.80;99.90;;;;;;5117245;28;20307;-60
2021/05/16 06:58:53;;;;;;;5.38;1.00;;;15.00;99.90;;;;;;5116708;28;20697;-60
2021/05/16 07:01:20;;;;;;;3.80;1.10;;;15.00;99.90;;;;;;5116929;28;20290;-61
2021/05/16 07:03:47;;;;;;;3.10;0.82;;;15.00;99.90;;;;;;5117086;28;20290;-61
2021/05/16 07:06:15;;;;;;;3.70;1.10;;;15.30;99.90;;;;;;5117017;28;20205;-61
2021/05/16 07:08:43;;;;;;;2.55;1.08;;;15.40;99.90;;;;;;5116897;28;20215;-61
2021/05/16 07:11:11;;;;;;;3.05;0.98;;;15.40;99.90;;;;;;5116853;28;20256;-60
2021/05/16 07:13:38;;;;;;;3.42;1.00;;;15.50;99.90;;;;;;5116588;28;20203;-61
2021/05/16 07:16:06;;;;;;;3.35;1.08;;;15.40;99.90;;;;;;5116279;28;20241;-62
2021/05/16 07:18:33;;;;;;;1.80;1.00;;;15.10;99.90;;;;;;5115930;28;20241;-61
2021/05/16 07:21:01;;;;;;;3.17;1.30;;;14.80;99.90;;;;;;5116030;28;20203;-61
2021/05/16 07:23:28;;;;;;;2.45;1.25;;;14.60;99.90;;;;;;5116164;28;20602;-61
2021/05/16 07:25:58;;;;;;;2.17;1.08;;;14.60;99.90;;;;;;5116640;28;20209;-61
2021/05/16 07:28:25;;;;;;;1.60;1.05;;;14.80;99.90;;;;;;5116347;28;20247;-61
2021/05/16 07:30:52;;;;;;;3.05;1.23;;;14.90;99.90;;;;;;5116273;28;20294;-62
2021/05/16 07:33:20;;;;;;;1.92;1.15;;;14.90;99.90;;;;;;5116499;28;20231;-60
2021/05/16 07:35:47;;;;;;;5.22;1.50;;;14.70;99.90;;;;;;5116340;28;20726;-61
2021/05/16 07:38:14;;;;;;;2.38;1.10;;;14.70;99.90;;;;;;5115822;28;20224;-63
2021/05/16 07:40:42;;;;;;;2.22;1.10;;;14.90;99.90;;;;;;5115975;28;20723;-61
2021/05/16 07:43:11;;;;;;;3.85;1.50;;;15.10;99.90;;;;;;5115657;28;20568;-60
2021/05/16 07:45:38;;;;;;;2.97;1.25;;;15.40;99.90;;;;;;5115534;28;20212;-62
2021/05/16 07:48:07;;;;;;;3.05;1.58;;;15.50;99.90;;;;;;5116460;28;20345;-61
2021/05/16 07:50:35;;;;;;;4.05;1.30;;;15.60;99.90;;;;;;5116379;28;20203;-61
2021/05/16 07:53:03;;;;;;;4.80;2.17;;;15.80;99.90;;;;;;5116105;28;20686;-62
2021/05/16 07:55:30;;;;;;;5.15;2.45;;;15.60;99.90;;;;;;5115932;28;20235;-61
2021/05/16 07:57:57;;;;;;;4.55;2.28;;;15.40;99.90;;;;;;5115426;28;20278;-61
2021/05/16 08:00:26;;;;;;;5.55;3.33;;;15.50;99.90;;;;;;5115376;28;20227;-60
2021/05/16 08:02:53;;;;;;;4.43;2.35;;;15.40;99.90;;;;;;5115364;28;20287;-61
2021/05/16 08:05:21;;;;;;;4.13;2.50;;;15.50;99.90;;;;;;5114959;28;20278;-61
2021/05/16 08:07:49;;;;;;;6.13;2.75;;;15.50;99.90;;;;;;5115099;28;20211;-61
2021/05/16 08:10:20;;;;;;;6.28;4.53;;;15.40;99.90;;;;;;5115240;28;20302;-61
2021/05/16 08:12:47;;;;;;;4.95;4.18;;;15.60;99.90;;;;;;5115705;28;20191;-60
2021/05/16 08:15:15;;;;;;;7.10;3.22;;;15.70;99.90;;;;;;5115528;28;20306;-61
2021/05/16 08:17:43;;;;;;;3.78;2.17;;;16.00;99.90;;;;;;5115674;28;20227;-61
2021/05/16 08:20:11;;;;;;;4.68;3.08;;;16.00;99.90;;;;;;5114473;28;20205;-61
2021/05/16 08:22:39;;;;;;;5.80;3.70;;;16.00;99.90;;;;;;5115371;28;20199;-60
2021/05/16 08:25:09;;;;;;;5.60;3.38;;;16.10;99.90;;;;;;5114610;28;20565;-61
2021/05/16 08:27:37;;;;;;;5.68;3.28;;;16.30;99.90;;;;;;5114821;28;20773;-60
2021/05/16 08:30:06;;;;;;;3.00;1.83;;;16.30;99.90;;;;;;5114734;28;20242;-59
2021/05/16 08:32:33;;;;;;;1.27;1.13;;;16.40;99.90;;;;;;5115428;28;20238;-59
2021/05/16 08:35:03;;;;;;;3.13;1.25;;;16.50;99.90;;;;;;5115174;28;20252;-62
2021/05/16 08:37:30;;;;;;;2.47;1.60;;;16.80;99.90;;;;;;5114894;28;20314;-61
2021/05/16 08:39:57;;;;;;;3.80;2.55;;;17.10;99.90;;;;;;5114945;28;20290;-61
2021/05/16 08:42:26;;;;;;;3.20;1.70;;;17.20;99.90;;;;;;5114701;28;20294;-62
2021/05/16 08:44:53;;;;;;;2.60;1.30;;;17.00;99.90;;;;;;5114505;28;20223;-61
2021/05/16 08:47:22;;;;;;;3.40;1.33;;;17.10;99.90;;;;;;5114578;28;20363;-61
2021/05/16 08:49:49;;;;;;;2.50;1.30;;;17.30;99.90;;;;;;5114645;28;20242;-62
2021/05/16 08:52:18;;;;;;;2.70;0.90;;;17.50;99.90;;;;;;5114724;28;20282;-62
2021/05/16 08:54:52;;;;;;;1.80;1.10;;;17.40;99.90;;;;;;5114519;28;20199;-62
2021/05/16 08:57:19;;;;;;;3.15;1.15;;;17.40;99.90;;;;;;5114480;28;20184;-61
2021/05/16 09:00:10;;;;;;;3.15;1.30;;;17.20;99.90;;;;;;5114055;28;20755;-62
2021/05/16 09:03:00;;;;;;;2.83;1.00;;;16.80;99.90;;;;;;5114577;28;20194;-60
2021/05/16 09:05:31;;;;;;;2.13;1.20;;;16.70;99.90;;;;;;5114317;28;20722;-61
2021/05/16 09:08:00;;;;;;;3.47;1.40;;;16.50;99.90;;;;;;5114157;28;20569;-60
2021/05/16 09:10:27;;;;;;;2.38;1.15;;;16.60;99.90;;;;;;5114410;28;20195;-60
2021/05/16 09:13:19;;;;;;;2.63;1.00;;;16.70;99.90;;;;;;5113347;28;20231;-60
2021/05/16 09:16:00;;;;;;;1.88;1.10;;;16.90;99.90;;;;;;5114107;28;20222;-60
2021/05/16 09:18:42;;;;;;;2.83;1.20;;;17.00;99.90;;;;;;5114020;28;20698;-61
2021/05/16 09:21:25;;;;;;;2.10;1.15;;;17.10;99.90;;;;;;5113751;28;20190;-60
2021/05/16 09:24:10;;;;;;;2.97;1.20;;;17.20;99.90;;;;;;5114223;28;20223;-61
2021/05/16 09:26:49;;;;;;;3.50;1.08;;;17.20;99.90;;;;;;5114186;28;20274;-62
2021/05/16 09:29:21;;;;;;;2.78;1.23;;;17.20;99.90;;;;;;5113752;28;20240;-62
2021/05/16 09:31:49;;;;;;;3.35;1.30;;;17.20;99.90;;;;;;5114120;28;20279;-61
2021/05/16 09:34:17;;;;;;;2.55;1.10;;;17.30;99.90;;;;;;5113974;28;20230;-61
2021/05/16 09:36:46;;;;;;;2.25;1.25;;;17.30;99.90;;;;;;5113991;28;20286;-59
2021/05/16 09:39:17;;;;;;;3.58;1.00;;;17.50;99.90;;;;;;5113366;28;20731;-61
2021/05/16 09:42:03;;;;;;;1.80;1.02;;;17.50;99.90;;;;;;5113876;28;20203;-59
2021/05/16 09:44:37;;;;;;;3.40;1.10;;;17.50;99.90;;;;;;5113423;28;20183;-59
2021/05/16 09:47:13;;;;;;;3.28;1.48;;;17.70;99.90;;;;;;5113796;28;20215;-60
2021/05/16 09:49:43;;;;;;;2.90;1.15;;;17.80;99.90;;;;;;5113497;28;20579;-59
2021/05/16 09:52:12;;;;;;;4.35;1.20;;;17.80;99.90;;;;;;5113466;28;20199;-60
2021/05/16 09:55:04;;;;;;;2.50;1.20;;;17.80;99.90;;;;;;5113080;28;20696;-59
2021/05/16 09:57:33;;;;;;;2.28;1.10;;;17.80;99.90;;;;;;5113054;28;20184;-60
2021/05/16 10:00:01;;;;;;;3.35;1.10;;;17.70;99.90;;;;;;5112900;28;20564;-58
2021/05/16 10:02:29;;;;;;;3.25;1.40;;;17.90;99.90;;;;;;5113049;28;20670;-60
2021/05/16 10:04:59;;;;;;;3.60;1.02;;;18.00;99.90;;;;;;5112921;28;20659;-60
2021/05/16 10:07:27;;;;;;;5.15;1.20;;;18.20;99.90;;;;;;5113063;28;20204;-59
2021/05/16 10:09:56;;;;;;;2.03;1.05;;;18.30;99.90;;;;;;5113210;28;20306;-62
2021/05/16 10:12:24;;;;;;;3.17;1.20;;;18.40;99.90;;;;;;5113154;28;20234;-61
2021/05/16 10:14:56;;;;;;;2.75;1.23;;;18.60;99.90;;;;;;5112525;28;20647;-61
2021/05/16 10:17:23;;;;;;;3.10;1.40;;;18.60;99.90;;;;;;5113127;28;20215;-60
2021/05/16 10:19:51;;;;;;;4.15;1.38;;;18.80;99.90;;;;;;5113008;28;20198;-60
2021/05/16 10:22:20;;;;;;;3.63;1.05;;;18.90;99.90;;;;;;5112550;28;20252;-60
2021/05/16 10:24:49;;;;;;;2.75;1.02;;;19.20;99.90;;;;;;5112484;28;20248;-59
2021/05/16 10:27:20;;;;;;;2.55;0.90;;;19.30;99.90;;;;;;5113074;28;20263;-61
2021/05/16 10:29:50;;;;;;;2.47;0.90;;;19.70;99.90;;;;;;5112589;28;20265;-60
2021/05/16 10:32:34;;;;;;;2.70;1.05;;;19.80;99.90;;;;;;5113304;28;20289;-58
2021/05/16 10:35:03;;;;;;;2.33;1.15;;;19.50;99.90;;;;;;5112654;28;20611;-59
2021/05/16 10:37:42;;;;;;;3.03;1.13;;;19.40;99.90;;;;;;5112493;28;20882;-60
2021/05/16 10:40:28;;;;;;;3.00;1.40;;;19.30;99.90;;;;;;5112995;28;20216;-61
2021/05/16 10:42:57;;;;;;;2.33;1.20;;;19.20;99.90;;;;;;5112925;28;20227;-60
2021/05/16 10:45:34;;;;;;;3.25;1.13;;;19.00;99.90;;;;;;5112202;28;20599;-59
2021/05/16 10:48:09;;;;;;;2.42;1.13;;;19.00;99.90;;;;;;5112101;28;20190;-60
2021/05/16 10:50:55;;;;;;;3.17;1.38;;;19.00;99.90;;;;;;5112747;28;20255;-60
2021/05/16 10:53:27;;;;;;;2.97;1.52;;;18.90;99.90;;;;;;5112604;28;20270;-60
2021/05/16 10:56:09;;;;;;;3.17;1.00;;;18.80;99.90;;;;;;5112959;28;20283;-64
2021/05/16 10:58:42;;;;;;;3.75;1.15;;;18.60;99.90;;;;;;5112249;28;20183;-63
2021/05/16 11:01:13;;;;;;;3.58;1.38;;;18.20;99.90;;;;;;5112713;28;20235;-62
2021/05/16 11:03:52;;;;;;;3.03;1.33;;;18.00;99.90;;;;;;5112589;28;20264;-62
2021/05/16 11:06:23;;;;;;;3.40;1.35;;;17.90;99.90;;;;;;5112624;28;20609;-61
2021/05/16 11:09:10;;;;;;;4.05;1.15;;;17.80;99.90;;;;;;5112452;28;20287;-61
2021/05/16 11:11:54;;;;;;;1.85;1.25;;;17.70;99.90;;;;;;5112591;28;20183;-62
2021/05/16 11:14:25;;;;;;;2.38;1.10;;;17.50;99.90;;;;;;5110475;28;20268;-62
2021/05/16 11:16:55;;;;;;;4.63;1.50;;;17.30;99.90;;;;;;5112362;28;20290;-60
2021/05/16 11:19:24;;;;;;;4.25;1.40;;;17.20;99.90;;;;;;5112473;28;20203;-60
2021/05/16 11:21:52;;;;;;;3.95;1.35;;;17.20;99.90;;;;;;5112261;28;20206;-59
2021/05/16 11:24:38;;;;;;;2.55;1.00;;;17.30;99.90;;;;;;5112492;28;20290;-60
2021/05/16 11:27:26;;;;;;;1.73;1.00;;;17.40;99.90;;;;;;5111990;28;20290;-58
2021/05/16 11:30:03;;;;;;;4.18;1.45;;;17.70;99.90;;;;;;5112179;28;20200;-60
2021/05/16 11:32:32;;;;;;;3.15;1.40;;;17.90;99.90;;;;;;5112441;28;20183;-59
2021/05/16 11:35:05;;;;;;;2.97;1.40;;;18.00;99.90;;;;;;5112233;28;20230;-61
2021/05/16 11:37:33;;;;;;;2.72;1.27;;;18.00;99.90;;;;;;5115154;28;20273;-61
2021/05/16 11:40:18;;;;;;;4.70;1.50;;;17.90;99.90;;;;;;5115819;28;20264;-62
2021/05/16 11:42:46;;;;;;;3.42;1.65;;;17.30;99.90;;;;;;5115798;28;20188;-60
2021/05/16 11:45:16;;;;;;;3.28;1.70;;;16.80;99.90;;;;;;5115534;28;20234;-61
2021/05/16 11:47:45;;;;;;;1.88;1.40;;;16.40;99.90;;;;;;5115641;28;20661;-59
2021/05/16 11:50:13;;;;;;;3.53;1.30;;;16.00;99.90;;;;;;5115809;28;20266;-59
2021/05/16 11:52:41;;;;;;;4.82;1.73;;;16.00;99.90;;;;;;5115828;28;20405;-59
2021/05/16 11:55:11;;;;;;;3.20;1.70;;;16.20;99.90;;;;;;5115433;28;20265;-59
2021/05/16 11:57:43;;;;;;;3.83;1.40;;;16.40;99.90;;;;;;5115812;28;20195;-60
2021/05/16 12:00:12;;;;;;;3.03;1.40;;;16.70;99.90;;;;;;5115538;28;20211;-59
2021/05/16 12:02:40;;;;;;;4.43;1.65;;;17.20;99.90;;;;;;5115667;28;20230;-60
2021/05/16 12:05:09;;;;;;;4.25;1.40;;;17.70;99.90;;;;;;5115377;28;20290;-60
2021/05/16 12:07:37;;;;;;;5.07;2.10;;;17.90;99.90;;;;;;5115744;28;20286;-61
2021/05/16 12:10:06;;;;;;;2.75;1.52;;;17.90;99.90;;;;;;5116242;28;20266;-60
2021/05/16 12:12:33;;;;;;;3.08;1.60;;;17.70;99.90;;;;;;5116000;28;20242;-61
2021/05/16 12:15:00;;;;;;;6.10;1.90;;;17.50;99.90;;;;;;5114851;28;20646;-60
2021/05/16 12:17:33;;;;;;;4.18;1.42;;;17.40;99.90;;;;;;5115366;28;20203;-58
2021/05/16 12:20:01;;;;;;;4.68;1.48;;;17.30;99.90;;;;;;5115021;28;20203;-60
2021/05/16 12:22:35;;;;;;;2.47;1.40;;;17.40;99.90;;;;;;5114858;28;20203;-60
2021/05/16 12:25:04;;;;;;;2.85;1.75;;;17.50;99.90;;;;;;5115216;28;20218;-58
2021/05/16 12:27:32;;;;;;;3.47;1.52;;;17.60;99.90;;;;;;5115163;28;20289;-61
2021/05/16 12:30:04;;;;;;;3.75;1.70;;;17.60;99.90;;;;;;5114648;28;20306;-61
2021/05/16 12:32:31;;;;;;;2.97;1.40;;;17.70;99.90;;;;;;5115170;28;20207;-61
2021/05/16 12:34:59;;;;;;;2.53;1.30;;;17.90;99.90;;;;;;5115095;28;20203;-63
2021/05/16 12:37:29;;;;;;;1.55;1.20;;;18.20;99.90;;;;;;5114727;28;20227;-64
2021/05/16 12:39:59;;;;;;;2.92;1.30;;;18.50;99.90;;;;;;5114781;28;20229;-60
2021/05/16 12:42:30;;;;;;;2.28;1.23;;;18.60;99.90;;;;;;5114696;28;20223;-61
2021/05/16 12:45:15;;;;;;;2.30;1.02;;;18.60;99.90;;;;;;5114012;28;20679;-61
2021/05/16 12:47:54;;;;;;;3.13;1.10;;;18.60;99.90;;;;;;5114457;28;20748;-61
2021/05/16 12:50:29;;;;;;;4.07;1.23;;;18.70;99.90;;;;;;5115004;28;20230;-60
2021/05/16 12:53:19;;;;;;;1.63;1.10;;;18.70;99.90;;;;;;5114358;28;20587;-60
2021/05/16 12:55:52;;;;;;;1.75;1.10;;;18.80;99.90;;;;;;5114791;28;20203;-60
2021/05/16 12:58:24;;;;;;;0.85;0.70;;;18.60;99.90;;;;;;5114463;28;20596;-60
2021/05/16 13:00:52;;;;;;;1.65;0.93;;;18.30;99.90;;;;;;5113751;28;20635;-60